Terminal Aerodrome Forecast
Issued by NWS Cleveland, OH

Home | Current Version | Previous Version | Graphics & Text | Print | Product List | Glossary On
Versions: 1 2 3 4 5 6 7 8 9 10 11 12 13 14 15 16 17 18
000
FTUS41 KCLE 220400 AAA
TAFMFD
TAF AMD
KMFD 220414Z 2204/2224 23008KT P6SM SCT070 OVC110
     FM220600 23010KT P6SM -SHRA OVC050
      TEMPO 2207/2210 5SM -SHRA BR BKN025
     FM221000 28012KT 5SM -SHRA BKN009 OVC025
     FM221500 32012G22KT P6SM OVC012
     FM221800 30015G25KT P6SM BKN030=

USA.gov is the U.S. government's official web portal to all federal, state and local government web resources and services.